sensor_id;sensor_type;location;lat;lon;timestamp;pressure;altitude;pressure_sealevel;temperature;humidity
36258;BME280;22294;52.044;4.582;2023-02-12T00:01:20;78921.31;;;-144.37;100.00
36258;BME280;22294;52.044;4.582;2023-02-12T00:03:46;78915.19;;;-144.37;100.00
36258;BME280;22294;52.044;4.582;2023-02-12T00:06:12;78917.25;;;-144.37;100.00
36258;BME280;22294;52.044;4.582;2023-02-12T00:08:38;78919.28;;;-144.37;100.00
36258;BME280;22294;52.044;4.582;2023-02-12T00:11:08;78913.16;;;-144.37;100.00
36258;BME280;22294;52.044;4.582;2023-02-12T00:13:36;78913.16;;;-144.37;100.00
36258;BME280;22294;52.044;4.582;2023-02-12T00:16:09;78915.19;;;-144.37;100.00
36258;BME280;22294;52.044;4.582;2023-02-12T00:18:35;78923.38;;;-144.37;100.00
36258;BME280;22294;52.044;4.582;2023-02-12T00:21:01;78923.38;;;-144.37;100.00
36258;BME280;22294;52.044;4.582;2023-02-12T00:23:27;78921.31;;;-144.37;100.00
36258;BME280;22294;52.044;4.582;2023-02-12T00:25:52;78915.19;;;-144.37;100.00
36258;BME280;22294;52.044;4.582;2023-02-12T00:28:17;78909.06;;;-144.37;100.00
36258;BME280;22294;52.044;4.582;2023-02-12T00:30:43;78907.00;;;-144.37;100.00
36258;BME280;22294;52.044;4.582;2023-02-12T00:33:08;78915.19;;;-144.37;100.00
36258;BME280;22294;52.044;4.582;2023-02-12T00:35:35;78915.19;;;-144.37;100.00
36258;BME280;22294;52.044;4.582;2023-02-12T00:38:00;78917.25;;;-144.37;100.00
36258;BME280;22294;52.044;4.582;2023-02-12T00:40:25;78923.38;;;-144.37;100.00
36258;BME280;22294;52.044;4.582;2023-02-12T00:42:51;78921.31;;;-144.37;100.00
36258;BME280;22294;52.044;4.582;2023-02-12T00:45:16;78923.38;;;-144.37;100.00
36258;BME280;22294;52.044;4.582;2023-02-12T00:47:41;78927.47;;;-144.37;100.00
36258;BME280;22294;52.044;4.582;2023-02-12T00:50:07;78931.56;;;-144.37;100.00
36258;BME280;22294;52.044;4.582;2023-02-12T00:52:32;78931.56;;;-144.37;100.00
36258;BME280;22294;52.044;4.582;2023-02-12T00:54:58;78929.50;;;-144.37;100.00
36258;BME280;22294;52.044;4.582;2023-02-12T00:57:23;78923.38;;;-144.37;100.00
36258;BME280;22294;52.044;4.582;2023-02-12T00:59:48;78923.38;;;-144.37;100.00
36258;BME280;22294;52.044;4.582;2023-02-12T01:02:14;78931.56;;;-144.37;100.00
36258;BME280;22294;52.044;4.582;2023-02-12T01:04:39;78937.69;;;-144.37;100.00
36258;BME280;22294;52.044;4.582;2023-02-12T01:07:04;78935.66;;;-144.37;100.00
36258;BME280;22294;52.044;4.582;2023-02-12T01:09:29;78931.56;;;-144.37;100.00
36258;BME280;22294;52.044;4.582;2023-02-12T01:11:55;78935.66;;;-144.37;100.00
36258;BME280;22294;52.044;4.582;2023-02-12T01:14:20;78933.59;;;-144.37;100.00
36258;BME280;22294;52.044;4.582;2023-02-12T01:16:45;78931.56;;;-144.37;100.00
36258;BME280;22294;52.044;4.582;2023-02-12T01:19:11;78927.47;;;-144.37;100.00
36258;BME280;22294;52.044;4.582;2023-02-12T01:21:37;78933.59;;;-144.37;100.00
36258;BME280;22294;52.044;4.582;2023-02-12T01:24:03;78925.41;;;-144.37;100.00
36258;BME280;22294;52.044;4.582;2023-02-12T01:26:30;78925.41;;;-144.37;100.00
36258;BME280;22294;52.044;4.582;2023-02-12T01:28:58;78937.69;;;-144.37;100.00
36258;BME280;22294;52.044;4.582;2023-02-12T01:31:27;78931.56;;;-144.37;100.00
36258;BME280;22294;52.044;4.582;2023-02-12T01:33:55;78923.38;;;-144.37;100.00
36258;BME280;22294;52.044;4.582;2023-02-12T01:36:21;78931.56;;;-144.37;100.00
36258;BME280;22294;52.044;4.582;2023-02-12T01:38:47;78933.59;;;-144.37;100.00
36258;BME280;22294;52.044;4.582;2023-02-12T01:41:16;78935.66;;;-144.37;100.00
36258;BME280;22294;52.044;4.582;2023-02-12T01:43:41;78931.56;;;-144.37;100.00
36258;BME280;22294;52.044;4.582;2023-02-12T01:46:09;78931.56;;;-144.37;100.00
36258;BME280;22294;52.044;4.582;2023-02-12T01:48:41;78939.75;;;-144.37;100.00
36258;BME280;22294;52.044;4.582;2023-02-12T01:51:11;78939.75;;;-144.37;100.00
36258;BME280;22294;52.044;4.582;2023-02-12T01:53:47;78937.69;;;-144.37;100.00
36258;BME280;22294;52.044;4.582;2023-02-12T01:56:13;78937.69;;;-144.37;100.00
36258;BME280;22294;52.044;4.582;2023-02-12T01:58:41;78935.66;;;-144.37;100.00
36258;BME280;22294;52.044;4.582;2023-02-12T02:01:11;78925.41;;;-144.37;100.00
36258;BME280;22294;52.044;4.582;2023-02-12T02:03:37;78931.56;;;-144.37;100.00
36258;BME280;22294;52.044;4.582;2023-02-12T02:06:19;78937.69;;;-144.37;100.00
36258;BME280;22294;52.044;4.582;2023-02-12T02:08:48;78939.75;;;-144.37;100.00
36258;BME280;22294;52.044;4.582;2023-02-12T02:11:13;78941.78;;;-144.37;100.00
36258;BME280;22294;52.044;4.582;2023-02-12T02:13:57;78937.69;;;-144.37;100.00
36258;BME280;22294;52.044;4.582;2023-02-12T02:16:46;78937.69;;;-144.37;100.00
36258;BME280;22294;52.044;4.582;2023-02-12T02:19:34;78939.75;;;-144.37;100.00
36258;BME280;22294;52.044;4.582;2023-02-12T02:22:23;78939.75;;;-144.37;100.00
36258;BME280;22294;52.044;4.582;2023-02-12T02:30:33;78943.84;;;-144.37;100.00
36258;BME280;22294;52.044;4.582;2023-02-12T02:33:22;78939.75;;;-144.37;100.00
36258;BME280;22294;52.044;4.582;2023-02-12T02:36:03;78937.69;;;-144.37;100.00
36258;BME280;22294;52.044;4.582;2023-02-12T02:38:33;78939.75;;;-144.37;100.00
36258;BME280;22294;52.044;4.582;2023-02-12T02:41:24;78929.50;;;-144.37;100.00
36258;BME280;22294;52.044;4.582;2023-02-12T02:43:53;78939.75;;;-144.37;100.00
36258;BME280;22294;52.044;4.582;2023-02-12T02:46:30;78931.56;;;-144.37;100.00
36258;BME280;22294;52.044;4.582;2023-02-12T02:49:03;78935.66;;;-144.37;100.00
36258;BME280;22294;52.044;4.582;2023-02-12T02:51:33;78939.75;;;-144.37;100.00
36258;BME280;22294;52.044;4.582;2023-02-12T02:54:04;78931.56;;;-144.37;100.00
36258;BME280;22294;52.044;4.582;2023-02-12T02:56:34;78937.69;;;-144.37;100.00
36258;BME280;22294;52.044;4.582;2023-02-12T02:59:06;78939.75;;;-144.37;100.00
36258;BME280;22294;52.044;4.582;2023-02-12T03:01:43;78937.69;;;-144.37;100.00
36258;BME280;22294;52.044;4.582;2023-02-12T03:04:15;78929.50;;;-144.37;100.00
36258;BME280;22294;52.044;4.582;2023-02-12T03:07:07;78925.41;;;-144.37;100.00
36258;BME280;22294;52.044;4.582;2023-02-12T03:09:41;78935.66;;;-144.37;100.00
36258;BME280;22294;52.044;4.582;2023-02-12T03:12:15;78931.56;;;-144.37;100.00
36258;BME280;22294;52.044;4.582;2023-02-12T03:14:53;78933.59;;;-144.37;100.00
36258;BME280;22294;52.044;4.582;2023-02-12T03:17:30;78941.78;;;-144.37;100.00
36258;BME280;22294;52.044;4.582;2023-02-12T03:20:02;78937.69;;;-144.37;100.00
36258;BME280;22294;52.044;4.582;2023-02-12T03:22:42;78929.50;;;-144.37;100.00
36258;BME280;22294;52.044;4.582;2023-02-12T03:25:13;78935.66;;;-144.37;100.00
36258;BME280;22294;52.044;4.582;2023-02-12T03:27:55;78931.56;;;-144.37;100.00
36258;BME280;22294;52.044;4.582;2023-02-12T03:30:24;78937.69;;;-144.37;100.00
36258;BME280;22294;52.044;4.582;2023-02-12T03:33:30;78937.69;;;-144.37;100.00
36258;BME280;22294;52.044;4.582;2023-02-12T03:39:10;78931.56;;;-144.37;100.00
36258;BME280;22294;52.044;4.582;2023-02-12T03:41:45;78929.50;;;-144.37;100.00
36258;BME280;22294;52.044;4.582;2023-02-12T03:44:21;78933.59;;;-144.37;100.00
36258;BME280;22294;52.044;4.582;2023-02-12T03:47:01;78933.59;;;-144.37;100.00
36258;BME280;22294;52.044;4.582;2023-02-12T03:49:32;78943.84;;;-144.37;100.00
36258;BME280;22294;52.044;4.582;2023-02-12T03:52:00;78943.84;;;-144.37;100.00
36258;BME280;22294;52.044;4.582;2023-02-12T03:54:26;78937.69;;;-144.37;100.00
36258;BME280;22294;52.044;4.582;2023-02-12T03:59:49;78941.78;;;-144.37;100.00
36258;BME280;22294;52.044;4.582;2023-02-12T04:02:17;78937.69;;;-144.37;100.00
36258;BME280;22294;52.044;4.582;2023-02-12T04:04:43;78939.75;;;-144.37;100.00
36258;BME280;22294;52.044;4.582;2023-02-12T04:07:09;78939.75;;;-144.37;100.00
36258;BME280;22294;52.044;4.582;2023-02-12T04:09:34;78937.69;;;-144.37;100.00
36258;BME280;22294;52.044;4.582;2023-02-12T04:17:47;78956.13;;;-144.37;100.00
36258;BME280;22294;52.044;4.582;2023-02-12T04:20:25;78960.22;;;-144.37;100.00
36258;BME280;22294;52.044;4.582;2023-02-12T04:26:16;78954.06;;;-144.37;100.00
36258;BME280;22294;52.044;4.582;2023-02-12T04:29:03;78949.97;;;-144.37;100.00
36258;BME280;22294;52.044;4.582;2023-02-12T04:37:26;78947.94;;;-144.37;100.00
36258;BME280;22294;52.044;4.582;2023-02-12T04:39:56;78939.75;;;-144.37;97.89
36258;BME280;22294;52.044;4.582;2023-02-12T04:42:23;78929.50;;;-144.37;91.86
36258;BME280;22294;52.044;4.582;2023-02-12T04:44:48;78913.16;;;-144.37;90.73
36258;BME280;22294;52.044;4.582;2023-02-12T04:47:15;78907.00;;;-144.37;90.45
36258;BME280;22294;52.044;4.582;2023-02-12T04:49:41;78919.28;;;-144.37;91.43
36258;BME280;22294;52.044;4.582;2023-02-12T04:52:06;78911.09;;;-144.37;92.87
36258;BME280;22294;52.044;4.582;2023-02-12T04:54:32;78923.38;;;-144.37;94.82
36258;BME280;22294;52.044;4.582;2023-02-12T04:56:59;78935.66;;;-144.37;97.47
36258;BME280;22294;52.044;4.582;2023-02-12T04:59:24;78947.94;;;-144.37;98.28
36258;BME280;22294;52.044;4.582;2023-02-12T05:01:50;78954.06;;;-144.37;99.13
36258;BME280;22294;52.044;4.582;2023-02-12T05:04:16;78954.06;;;-144.37;100.00
36258;BME280;22294;52.044;4.582;2023-02-12T05:06:43;78956.13;;;-144.37;100.00
36258;BME280;22294;52.044;4.582;2023-02-12T05:09:13;78958.16;;;-144.37;100.00
36258;BME280;22294;52.044;4.582;2023-02-12T05:11:38;78958.16;;;-144.37;100.00
36258;BME280;22294;52.044;4.582;2023-02-12T05:14:04;78958.16;;;-144.37;100.00
36258;BME280;22294;52.044;4.582;2023-02-12T05:16:29;78964.31;;;-144.37;100.00
36258;BME280;22294;52.044;4.582;2023-02-12T05:18:54;78966.34;;;-144.37;100.00
36258;BME280;22294;52.044;4.582;2023-02-12T05:21:19;78964.31;;;-144.37;100.00
36258;BME280;22294;52.044;4.582;2023-02-12T05:23:45;78958.16;;;-144.37;100.00
36258;BME280;22294;52.044;4.582;2023-02-12T05:26:16;78960.22;;;-144.37;99.43
36258;BME280;22294;52.044;4.582;2023-02-12T05:28:42;78954.06;;;-144.37;100.00
36258;BME280;22294;52.044;4.582;2023-02-12T05:31:09;78966.34;;;-144.37;100.00
36258;BME280;22294;52.044;4.582;2023-02-12T05:33:35;78964.31;;;-144.37;100.00
36258;BME280;22294;52.044;4.582;2023-02-12T05:36:08;78966.34;;;-144.37;100.00
36258;BME280;22294;52.044;4.582;2023-02-12T05:38:34;78958.16;;;-144.37;98.22
36258;BME280;22294;52.044;4.582;2023-02-12T05:41:06;78966.34;;;-144.37;99.33
36258;BME280;22294;52.044;4.582;2023-02-12T05:43:31;78964.31;;;-144.37;100.00
36258;BME280;22294;52.044;4.582;2023-02-12T05:46:04;78972.50;;;-144.37;100.00
36258;BME280;22294;52.044;4.582;2023-02-12T05:48:30;78976.59;;;-144.37;100.00
36258;BME280;22294;52.044;4.582;2023-02-12T05:51:04;78970.44;;;-144.37;100.00
36258;BME280;22294;52.044;4.582;2023-02-12T05:53:30;78976.59;;;-144.37;100.00
36258;BME280;22294;52.044;4.582;2023-02-12T05:56:09;78978.63;;;-144.37;100.00
36258;BME280;22294;52.044;4.582;2023-02-12T05:58:34;78990.91;;;-144.37;100.00
36258;BME280;22294;52.044;4.582;2023-02-12T06:01:00;78986.81;;;-144.37;100.00
36258;BME280;22294;52.044;4.582;2023-02-12T06:03:26;78984.78;;;-144.37;100.00
36258;BME280;22294;52.044;4.582;2023-02-12T06:05:51;78986.81;;;-144.37;100.00
36258;BME280;22294;52.044;4.582;2023-02-12T06:08:17;78986.81;;;-144.37;100.00
36258;BME280;22294;52.044;4.582;2023-02-12T06:10:42;78980.69;;;-144.37;100.00
36258;BME280;22294;52.044;4.582;2023-02-12T06:13:07;78976.59;;;-144.37;100.00
36258;BME280;22294;52.044;4.582;2023-02-12T06:15:35;78972.50;;;-144.37;100.00
36258;BME280;22294;52.044;4.582;2023-02-12T06:18:01;78972.50;;;-144.37;100.00
36258;BME280;22294;52.044;4.582;2023-02-12T06:20:26;78970.44;;;-144.37;100.00
36258;BME280;22294;52.044;4.582;2023-02-12T06:22:51;78982.72;;;-144.37;100.00
36258;BME280;22294;52.044;4.582;2023-02-12T06:25:16;78976.59;;;-144.37;100.00
36258;BME280;22294;52.044;4.582;2023-02-12T06:27:42;78972.50;;;-144.37;100.00
36258;BME280;22294;52.044;4.582;2023-02-12T06:30:07;78976.59;;;-144.37;100.00
36258;BME280;22294;52.044;4.582;2023-02-12T06:32:33;78976.59;;;-144.37;100.00
36258;BME280;22294;52.044;4.582;2023-02-12T06:34:58;78974.53;;;-144.37;100.00
36258;BME280;22294;52.044;4.582;2023-02-12T06:37:23;78978.63;;;-144.37;100.00
36258;BME280;22294;52.044;4.582;2023-02-12T06:39:49;78982.72;;;-144.37;100.00
36258;BME280;22294;52.044;4.582;2023-02-12T06:42:14;78982.72;;;-144.37;100.00
36258;BME280;22294;52.044;4.582;2023-02-12T06:44:39;78984.78;;;-144.37;100.00
36258;BME280;22294;52.044;4.582;2023-02-12T06:47:05;78978.63;;;-144.37;100.00
36258;BME280;22294;52.044;4.582;2023-02-12T06:49:30;78986.81;;;-144.37;100.00
36258;BME280;22294;52.044;4.582;2023-02-12T06:51:55;78992.97;;;-144.37;100.00
36258;BME280;22294;52.044;4.582;2023-02-12T06:54:21;78995.00;;;-144.37;100.00
36258;BME280;22294;52.044;4.582;2023-02-12T06:56:46;79001.16;;;-144.37;100.00
36258;BME280;22294;52.044;4.582;2023-02-12T06:59:14;78997.06;;;-144.37;100.00
36258;BME280;22294;52.044;4.582;2023-02-12T07:01:39;79007.28;;;-144.37;100.00
36258;BME280;22294;52.044;4.582;2023-02-12T07:04:05;79005.25;;;-144.37;100.00
36258;BME280;22294;52.044;4.582;2023-02-12T07:06:33;78992.97;;;-144.37;100.00
36258;BME280;22294;52.044;4.582;2023-02-12T07:08:59;78999.09;;;-144.37;100.00
36258;BME280;22294;52.044;4.582;2023-02-12T07:11:26;79009.34;;;-144.37;100.00
36258;BME280;22294;52.044;4.582;2023-02-12T07:13:52;79009.34;;;-144.37;100.00
36258;BME280;22294;52.044;4.582;2023-02-12T07:16:17;79013.44;;;-144.37;100.00
36258;BME280;22294;52.044;4.582;2023-02-12T07:18:44;79017.53;;;-144.37;100.00
36258;BME280;22294;52.044;4.582;2023-02-12T07:21:10;79011.38;;;-144.37;100.00
36258;BME280;22294;52.044;4.582;2023-02-12T07:23:36;79017.53;;;-144.37;100.00
36258;BME280;22294;52.044;4.582;2023-02-12T07:26:04;79013.44;;;-144.37;100.00
36258;BME280;22294;52.044;4.582;2023-02-12T07:28:31;79021.63;;;-144.37;100.00
36258;BME280;22294;52.044;4.582;2023-02-12T07:30:58;79023.66;;;-144.37;100.00
36258;BME280;22294;52.044;4.582;2023-02-12T07:33:24;79023.66;;;-144.37;100.00
36258;BME280;22294;52.044;4.582;2023-02-12T07:35:49;79025.72;;;-144.37;100.00
36258;BME280;22294;52.044;4.582;2023-02-12T07:38:15;79037.97;;;-144.37;100.00
36258;BME280;22294;52.044;4.582;2023-02-12T07:40:40;79040.03;;;-144.37;100.00
36258;BME280;22294;52.044;4.582;2023-02-12T07:43:05;79042.06;;;-144.37;100.00
36258;BME280;22294;52.044;4.582;2023-02-12T07:45:30;79033.91;;;-144.37;100.00
36258;BME280;22294;52.044;4.582;2023-02-12T07:47:56;79037.97;;;-144.37;100.00
36258;BME280;22294;52.044;4.582;2023-02-12T07:50:21;79031.84;;;-144.37;100.00
36258;BME280;22294;52.044;4.582;2023-02-12T07:52:49;79031.84;;;-144.37;100.00
36258;BME280;22294;52.044;4.582;2023-02-12T07:55:15;79031.84;;;-144.37;100.00
36258;BME280;22294;52.044;4.582;2023-02-12T07:57:40;79031.84;;;-144.37;100.00
36258;BME280;22294;52.044;4.582;2023-02-12T08:00:08;79027.75;;;-144.37;100.00
36258;BME280;22294;52.044;4.582;2023-02-12T08:02:33;79037.97;;;-144.37;100.00
36258;BME280;22294;52.044;4.582;2023-02-12T08:04:59;79042.06;;;-144.37;100.00
36258;BME280;22294;52.044;4.582;2023-02-12T08:07:24;79035.94;;;-144.37;100.00
36258;BME280;22294;52.044;4.582;2023-02-12T08:09:49;79035.94;;;-144.37;100.00
36258;BME280;22294;52.044;4.582;2023-02-12T08:12:16;79040.03;;;-144.37;100.00
36258;BME280;22294;52.044;4.582;2023-02-12T08:14:41;79037.97;;;-144.37;100.00
36258;BME280;22294;52.044;4.582;2023-02-12T08:17:07;79031.84;;;-144.37;100.00
36258;BME280;22294;52.044;4.582;2023-02-12T08:19:33;79025.72;;;-144.37;100.00
36258;BME280;22294;52.044;4.582;2023-02-12T08:21:58;79015.47;;;-144.37;100.00
36258;BME280;22294;52.044;4.582;2023-02-12T08:24:26;79013.44;;;-144.37;100.00
36258;BME280;22294;52.044;4.582;2023-02-12T08:26:51;79011.38;;;-144.37;100.00
36258;BME280;22294;52.044;4.582;2023-02-12T08:29:19;79015.47;;;-144.37;100.00
36258;BME280;22294;52.044;4.582;2023-02-12T08:31:47;79013.44;;;-144.37;100.00
36258;BME280;22294;52.044;4.582;2023-02-12T08:34:18;79009.34;;;-144.37;100.00
36258;BME280;22294;52.044;4.582;2023-02-12T08:36:44;79011.38;;;-144.37;100.00
36258;BME280;22294;52.044;4.582;2023-02-12T08:39:10;79005.25;;;-144.37;100.00
36258;BME280;22294;52.044;4.582;2023-02-12T08:41:36;79005.25;;;-144.37;98.10
36258;BME280;22294;52.044;4.582;2023-02-12T08:44:03;79005.25;;;-144.37;97.85
36258;BME280;22294;52.044;4.582;2023-02-12T08:46:31;79001.16;;;-144.37;96.70
36258;BME280;22294;52.044;4.582;2023-02-12T08:49:03;79001.16;;;-144.37;98.14
36258;BME280;22294;52.044;4.582;2023-02-12T08:51:30;78997.06;;;-144.37;98.22
36258;BME280;22294;52.044;4.582;2023-02-12T08:53:58;78997.06;;;-144.37;98.42
36258;BME280;22294;52.044;4.582;2023-02-12T08:56:25;78999.09;;;-144.37;99.63
36258;BME280;22294;52.044;4.582;2023-02-12T08:58:52;78997.06;;;-144.37;99.80
36258;BME280;22294;52.044;4.582;2023-02-12T09:01:21;78999.09;;;-144.37;100.00
36258;BME280;22294;52.044;4.582;2023-02-12T09:03:47;78986.81;;;-144.37;98.42
36258;BME280;22294;52.044;4.582;2023-02-12T09:06:14;78982.72;;;-144.37;96.77
36258;BME280;22294;52.044;4.582;2023-02-12T09:08:40;78974.53;;;-144.37;95.74
36258;BME280;22294;52.044;4.582;2023-02-12T09:11:10;78974.53;;;-144.37;94.83
36258;BME280;22294;52.044;4.582;2023-02-12T09:13:37;78968.41;;;-144.37;95.38
36258;BME280;22294;52.044;4.582;2023-02-12T09:16:03;78968.41;;;-144.37;95.91
36258;BME280;22294;52.044;4.582;2023-02-12T09:18:29;78968.41;;;-144.37;95.16
36258;BME280;22294;52.044;4.582;2023-02-12T09:21:00;78962.25;;;-144.37;93.22
36258;BME280;22294;52.044;4.582;2023-02-12T09:23:25;78958.16;;;-144.37;94.24
36258;BME280;22294;52.044;4.582;2023-02-12T09:25:50;78952.03;;;-144.37;94.81
36258;BME280;22294;52.044;4.582;2023-02-12T09:28:16;78956.13;;;-144.37;94.87
36258;BME280;22294;52.044;4.582;2023-02-12T09:30:41;78958.16;;;-144.37;95.06
36258;BME280;22294;52.044;4.582;2023-02-12T09:33:08;78952.03;;;-144.37;94.72
36258;BME280;22294;52.044;4.582;2023-02-12T09:35:35;78947.94;;;-144.37;93.77
36258;BME280;22294;52.044;4.582;2023-02-12T09:38:02;78943.84;;;-144.37;92.43
36258;BME280;22294;52.044;4.582;2023-02-12T09:43:02;78941.78;;;-144.37;92.14
36258;BME280;22294;52.044;4.582;2023-02-12T09:45:35;78937.69;;;-144.37;91.41
36258;BME280;22294;52.044;4.582;2023-02-12T09:48:18;78929.50;;;-144.37;90.29
36258;BME280;22294;52.044;4.582;2023-02-12T09:50:54;78933.59;;;-144.37;89.39
36258;BME280;22294;52.044;4.582;2023-02-12T09:53:23;78933.59;;;-144.37;87.93
36258;BME280;22294;52.044;4.582;2023-02-12T09:55:49;78925.41;;;-144.37;88.34
36258;BME280;22294;52.044;4.582;2023-02-12T09:58:50;78919.28;;;-144.37;87.30
36258;BME280;22294;52.044;4.582;2023-02-12T10:01:19;78917.25;;;-144.37;86.49
36258;BME280;22294;52.044;4.582;2023-02-12T10:03:46;78915.19;;;-144.37;85.96
36258;BME280;22294;52.044;4.582;2023-02-12T10:06:19;78911.09;;;-144.37;85.88
36258;BME280;22294;52.044;4.582;2023-02-12T10:08:54;78902.91;;;-144.37;85.70
36258;BME280;22294;52.044;4.582;2023-02-12T10:11:42;78902.91;;;-144.37;84.63
36258;BME280;22294;52.044;4.582;2023-02-12T10:14:38;78904.97;;;-144.37;83.70
36258;BME280;22294;52.044;4.582;2023-02-12T10:22:56;78894.72;;;-144.37;81.35
36258;BME280;22294;52.044;4.582;2023-02-12T10:27:55;78890.63;;;-144.37;81.17
36258;BME280;22294;52.044;4.582;2023-02-12T10:33:02;78884.50;;;-144.37;80.32
36258;BME280;22294;52.044;4.582;2023-02-12T10:35:29;78878.34;;;-144.37;80.21
36258;BME280;22294;52.044;4.582;2023-02-12T10:38:15;78878.34;;;-144.37;79.15
36258;BME280;22294;52.044;4.582;2023-02-12T10:40:43;78876.31;;;-144.37;79.72
36258;BME280;22294;52.044;4.582;2023-02-12T10:43:10;78874.25;;;-144.37;79.31
36258;BME280;22294;52.044;4.582;2023-02-12T10:45:38;78870.16;;;-144.37;79.00
36258;BME280;22294;52.044;4.582;2023-02-12T10:48:07;78870.16;;;-144.37;78.99
36258;BME280;22294;52.044;4.582;2023-02-12T10:53:32;78866.06;;;-144.37;78.61
36258;BME280;22294;52.044;4.582;2023-02-12T10:58:56;78861.97;;;-144.37;77.78
36258;BME280;22294;52.044;4.582;2023-02-12T11:01:37;78855.84;;;-144.37;77.65
36258;BME280;22294;52.044;4.582;2023-02-12T11:04:28;78853.78;;;-144.37;77.19
36258;BME280;22294;52.044;4.582;2023-02-12T11:07:06;78853.78;;;-144.37;77.06
36258;BME280;22294;52.044;4.582;2023-02-12T11:09:36;78853.78;;;-144.37;76.44
36258;BME280;22294;52.044;4.582;2023-02-12T11:12:30;78855.84;;;-144.37;75.57
36258;BME280;22294;52.044;4.582;2023-02-12T11:14:59;78857.88;;;-144.37;75.42
36258;BME280;22294;52.044;4.582;2023-02-12T11:17:37;78849.69;;;-144.37;76.52
36258;BME280;22294;52.044;4.582;2023-02-12T11:20:32;78845.59;;;-144.37;76.11
36258;BME280;22294;52.044;4.582;2023-02-12T11:23:00;78851.75;;;-144.37;76.30
36258;BME280;22294;52.044;4.582;2023-02-12T11:25:30;78849.69;;;-144.37;75.06
36258;BME280;22294;52.044;4.582;2023-02-12T11:28:15;78855.84;;;-144.37;74.96
36258;BME280;22294;52.044;4.582;2023-02-12T11:33:34;78851.75;;;-144.37;74.91
36258;BME280;22294;52.044;4.582;2023-02-12T11:38:34;78847.66;;;-144.37;75.48
36258;BME280;22294;52.044;4.582;2023-02-12T11:41:52;78841.50;;;-144.37;75.99
36258;BME280;22294;52.044;4.582;2023-02-12T11:43:53;78835.38;;;-144.37;75.82
36258;BME280;22294;52.044;4.582;2023-02-12T11:46:21;78831.28;;;-144.37;75.58
36258;BME280;22294;52.044;4.582;2023-02-12T11:48:47;78829.22;;;-144.37;74.87
36258;BME280;22294;52.044;4.582;2023-02-12T11:51:19;78827.19;;;-144.37;75.08
36258;BME280;22294;52.044;4.582;2023-02-12T11:53:49;78823.09;;;-144.37;74.70
36258;BME280;22294;52.044;4.582;2023-02-12T11:56:15;78819.00;;;-144.37;74.69
36258;BME280;22294;52.044;4.582;2023-02-12T11:58:41;78816.97;;;-144.37;74.61
36258;BME280;22294;52.044;4.582;2023-02-12T12:01:22;78816.97;;;-144.37;74.56
36258;BME280;22294;52.044;4.582;2023-02-12T12:03:59;78814.91;;;-144.37;74.92
36258;BME280;22294;52.044;4.582;2023-02-12T12:06:37;78816.97;;;-144.37;74.68
36258;BME280;22294;52.044;4.582;2023-02-12T12:12:12;78806.72;;;-144.37;73.55
36258;BME280;22294;52.044;4.582;2023-02-12T12:15:03;78808.78;;;-144.37;73.64
36258;BME280;22294;52.044;4.582;2023-02-12T12:18:13;78802.63;;;-144.37;74.51
36258;BME280;22294;52.044;4.582;2023-02-12T12:21:10;78804.69;;;-144.37;74.45
36258;BME280;22294;52.044;4.582;2023-02-12T12:24:00;78794.44;;;-144.37;74.89
36258;BME280;22294;52.044;4.582;2023-02-12T12:26:29;78790.34;;;-144.37;75.69
36258;BME280;22294;52.044;4.582;2023-02-12T12:29:00;78794.44;;;-144.37;76.66
36258;BME280;22294;52.044;4.582;2023-02-12T12:31:37;78790.34;;;-144.37;77.29
36258;BME280;22294;52.044;4.582;2023-02-12T12:34:08;78790.34;;;-144.37;77.33
36258;BME280;22294;52.044;4.582;2023-02-12T12:37:23;78786.25;;;-144.37;76.39
36258;BME280;22294;52.044;4.582;2023-02-12T12:39:35;78794.44;;;-144.37;75.91
36258;BME280;22294;52.044;4.582;2023-02-12T12:50:49;78776.03;;;-144.37;74.85
36258;BME280;22294;52.044;4.582;2023-02-12T12:53:46;78776.03;;;-144.37;75.51
36258;BME280;22294;52.044;4.582;2023-02-12T12:56:47;78776.03;;;-144.37;75.75
36258;BME280;22294;52.044;4.582;2023-02-12T13:08:02;78761.69;;;-144.37;76.06
36258;BME280;22294;52.044;4.582;2023-02-12T13:10:41;78767.84;;;-144.37;75.38
36258;BME280;22294;52.044;4.582;2023-02-12T13:15:46;78759.66;;;-144.37;73.95
36258;BME280;22294;52.044;4.582;2023-02-12T13:18:33;78767.84;;;-144.37;74.00
36258;BME280;22294;52.044;4.582;2023-02-12T13:24:01;78757.59;;;-144.37;74.80
36258;BME280;22294;52.044;4.582;2023-02-12T13:26:51;78755.56;;;-144.37;74.95
36258;BME280;22294;52.044;4.582;2023-02-12T13:29:21;78753.50;;;-144.37;74.82
36258;BME280;22294;52.044;4.582;2023-02-12T13:31:54;78759.66;;;-144.37;74.94
36258;BME280;22294;52.044;4.582;2023-02-12T13:34:21;78751.47;;;-144.37;75.59
36258;BME280;22294;52.044;4.582;2023-02-12T13:36:51;78751.47;;;-144.37;75.82
36258;BME280;22294;52.044;4.582;2023-02-12T13:39:37;78747.38;;;-144.37;76.11
36258;BME280;22294;52.044;4.582;2023-02-12T13:49:52;78757.59;;;-144.37;75.71
36258;BME280;22294;52.044;4.582;2023-02-12T13:52:27;78751.47;;;-144.37;75.64
36258;BME280;22294;52.044;4.582;2023-02-12T13:55:10;78747.38;;;-144.37;75.14
36258;BME280;22294;52.044;4.582;2023-02-12T13:57:42;78751.47;;;-144.37;76.00
36258;BME280;22294;52.044;4.582;2023-02-12T14:01:11;78745.34;;;-144.37;76.53
36258;BME280;22294;52.044;4.582;2023-02-12T14:03:12;78747.38;;;-144.37;76.03
36258;BME280;22294;52.044;4.582;2023-02-12T14:05:38;78745.34;;;-144.37;75.93
36258;BME280;22294;52.044;4.582;2023-02-12T14:08:04;78743.28;;;-144.37;75.79
36258;BME280;22294;52.044;4.582;2023-02-12T14:10:40;78749.41;;;-144.37;76.03
36258;BME280;22294;52.044;4.582;2023-02-12T14:13:14;78745.34;;;-144.37;75.73
36258;BME280;22294;52.044;4.582;2023-02-12T14:15:43;78745.34;;;-144.37;76.01